« Back
NWS Peachtree City, Ga » Text Product » CSG Terminal Aerodrome Forecast


Printer-friendly Version
Current Version              Previous Versions:   1  2  3  4  5  6  7  8  9  

Terminal Aerodrome Forecast

516
FTUS42 KFFC 012341
TAFCSG
TAF
KCSG 012341Z 0200/0224 00000KT P6SM SCT250
     FM021400 VRB03KT P6SM SCT035 SCT250
     FM021700 32003KT P6SM BKN045=



USA.gov is the U.S. government's official web portal to all federal, state and local government web resources and services.